createdAt,value
2023-02-08T00:01:27.631Z,22.63
2023-02-08T00:03:58.136Z,21.60
2023-02-08T00:06:28.708Z,22.23
2023-02-08T00:09:01.073Z,22.23
2023-02-08T00:11:31.584Z,22.23
2023-02-08T00:14:05.725Z,23.00
2023-02-08T00:16:36.806Z,21.67
2023-02-08T00:19:08.974Z,24.00
2023-02-08T00:21:41.868Z,22.53
2023-02-08T00:24:13.694Z,21.23
2023-02-08T00:26:45.783Z,21.57
2023-02-08T00:29:16.714Z,21.57
2023-02-08T00:31:48.872Z,20.83
2023-02-08T00:34:19.765Z,22.17
2023-02-08T00:36:51.211Z,23.27
2023-02-08T00:39:22.039Z,23.70
2023-02-08T00:41:52.698Z,22.17
2023-02-08T00:44:23.282Z,23.93
2023-02-08T00:46:54.966Z,21.40
2023-02-08T00:49:27.664Z,22.63
2023-02-08T00:51:59.152Z,21.67
2023-02-08T00:54:31.451Z,21.83
2023-02-08T00:57:02.061Z,22.10
2023-02-08T00:59:32.847Z,21.73
2023-02-08T01:02:03.510Z,21.93
2023-02-08T01:04:34.192Z,21.50
2023-02-08T01:07:06.118Z,21.60
2023-02-08T01:09:37.558Z,20.87
2023-02-08T01:12:08.356Z,21.07
2023-02-08T01:14:40.030Z,22.30
2023-02-08T01:17:10.653Z,21.53
2023-02-08T01:19:42.590Z,22.87
2023-02-08T01:22:13.368Z,24.23
2023-02-08T01:24:45.365Z,24.67
2023-02-08T01:27:15.997Z,23.83
2023-02-08T01:29:48.081Z,23.80
2023-02-08T01:32:19.037Z,23.47
2023-02-08T01:34:49.476Z,22.60
2023-02-08T01:37:24.576Z,23.87
2023-02-08T01:39:57.565Z,22.00
2023-02-08T01:42:28.552Z,23.80
2023-02-08T01:45:24.896Z,25.30
2023-02-08T01:47:58.462Z,24.33
2023-02-08T01:50:32.241Z,25.60
2023-02-08T01:53:03.769Z,26.73
2023-02-08T01:55:37.362Z,27.67
2023-02-08T01:58:10.779Z,27.17
2023-02-08T02:00:41.869Z,28.20
2023-02-08T02:03:12.953Z,29.17
2023-02-08T02:05:48.897Z,28.53
2023-02-08T02:08:19.673Z,29.50
2023-02-08T02:10:50.977Z,28.90
2023-02-08T02:13:24.745Z,28.37
2023-02-08T02:15:55.694Z,28.33
2023-02-08T02:18:29.056Z,28.07
2023-02-08T02:21:19.780Z,26.37
2023-02-08T02:24:13.183Z,27.57
2023-02-08T02:26:49.635Z,26.80
2023-02-08T02:29:41.095Z,27.17
2023-02-08T02:32:32.888Z,26.57
2023-02-08T02:35:09.290Z,24.73
2023-02-08T02:37:56.370Z,24.87
2023-02-08T02:40:39.664Z,25.13
2023-02-08T02:43:36.851Z,23.57
2023-02-08T02:46:16.986Z,24.77
2023-02-08T02:49:21.051Z,25.00
2023-02-08T02:52:09.667Z,24.33
2023-02-08T02:54:50.284Z,23.60
2023-02-08T02:57:29.486Z,22.87
2023-02-08T03:00:00.782Z,23.33
2023-02-08T03:02:31.367Z,24.10
2023-02-08T03:05:02.243Z,23.33
2023-02-08T03:08:16.661Z,23.67
2023-02-08T03:11:02.409Z,23.17
2023-02-08T03:13:47.425Z,22.00
2023-02-08T03:16:27.312Z,21.40
2023-02-08T03:19:03.479Z,21.97
2023-02-08T03:21:56.488Z,21.57
2023-02-08T03:24:32.947Z,21.97
2023-02-08T03:27:09.267Z,21.47
2023-02-08T03:30:02.190Z,21.33
2023-02-08T03:32:50.821Z,21.50
2023-02-08T03:35:35.726Z,21.20
2023-02-08T03:38:25.534Z,20.80
2023-02-08T03:40:59.020Z,19.07
2023-02-08T03:43:38.620Z,20.33
2023-02-08T03:46:21.174Z,19.97
2023-02-08T03:48:54.880Z,19.80
2023-02-08T03:51:27.043Z,19.20
2023-02-08T03:53:59.120Z,18.93
2023-02-08T03:56:38.216Z,18.50
2023-02-08T03:59:11.834Z,19.87
2023-02-08T04:01:51.594Z,21.03
2023-02-08T04:04:23.222Z,18.33
2023-02-08T04:06:54.488Z,19.83
2023-02-08T04:09:25.100Z,18.67
2023-02-08T04:11:56.712Z,18.67
2023-02-08T04:14:27.721Z,18.63
2023-02-08T04:17:01.280Z,18.07
2023-02-08T04:19:31.852Z,19.07
2023-02-08T04:22:02.359Z,18.53
2023-02-08T04:24:33.055Z,18.37
2023-02-08T04:27:05.832Z,18.43
2023-02-08T04:29:35.794Z,18.20
2023-02-08T04:32:08.112Z,18.03
2023-02-08T04:34:40.931Z,18.43
2023-02-08T04:37:12.039Z,18.47
2023-02-08T04:39:42.541Z,17.93
2023-02-08T04:42:12.992Z,17.47
2023-02-08T04:44:44.467Z,16.83
2023-02-08T04:47:14.905Z,17.50
2023-02-08T04:49:45.435Z,17.53
2023-02-08T04:52:15.833Z,16.87
2023-02-08T04:54:46.322Z,18.13
2023-02-08T04:57:17.465Z,17.13
2023-02-08T04:59:48.164Z,17.60
2023-02-08T05:02:20.435Z,17.30
2023-02-08T05:04:50.890Z,16.90
2023-02-08T05:07:21.638Z,16.83
2023-02-08T05:09:52.563Z,17.80
2023-02-08T05:12:25.768Z,17.53
2023-02-08T05:14:56.728Z,17.47
2023-02-08T05:17:27.154Z,17.23
2023-02-08T05:19:58.885Z,17.00
2023-02-08T05:22:30.335Z,17.50
2023-02-08T05:25:01.439Z,17.60
2023-02-08T05:27:32.586Z,17.63
2023-02-08T05:30:05.102Z,17.60
2023-02-08T05:32:35.629Z,17.23
2023-02-08T05:35:06.764Z,18.50
2023-02-08T05:37:37.580Z,17.80
2023-02-08T05:40:09.504Z,17.57
2023-02-08T05:42:42.225Z,18.07
2023-02-08T05:45:12.789Z,17.60
2023-02-08T05:47:43.592Z,17.97
2023-02-08T05:50:14.736Z,17.50
2023-02-08T05:52:45.159Z,17.23
2023-02-08T05:55:15.999Z,16.87
2023-02-08T05:57:46.595Z,18.03
2023-02-08T06:00:17.902Z,17.83
2023-02-08T06:02:49.052Z,19.77
2023-02-08T06:05:19.653Z,17.40
2023-02-08T06:07:50.052Z,17.07
2023-02-08T06:10:22.145Z,17.20
2023-02-08T06:12:52.615Z,18.10
2023-02-08T06:15:23.074Z,17.63
2023-02-08T06:17:54.120Z,17.17
2023-02-08T06:20:26.530Z,16.37
2023-02-08T06:22:57.328Z,17.47
2023-02-08T06:25:28.850Z,18.50
2023-02-08T06:27:59.539Z,17.47
2023-02-08T06:30:32.489Z,17.03
2023-02-08T06:33:05.106Z,18.23
2023-02-08T06:35:37.691Z,17.67
2023-02-08T06:38:10.724Z,17.53
2023-02-08T06:40:42.033Z,17.83
2023-02-08T06:43:15.172Z,19.53
2023-02-08T06:45:47.476Z,16.93
2023-02-08T06:48:18.130Z,17.97
2023-02-08T06:50:49.276Z,18.20
2023-02-08T06:53:19.939Z,18.50
2023-02-08T06:55:51.505Z,19.20
2023-02-08T06:58:24.040Z,18.37
2023-02-08T07:00:54.602Z,18.07
2023-02-08T07:03:27.787Z,18.00
2023-02-08T07:06:05.054Z,18.90
2023-02-08T07:08:30.346Z,16.43
2023-02-08T07:11:01.044Z,19.33
2023-02-08T07:13:31.492Z,16.93
2023-02-08T07:16:04.067Z,18.63
2023-02-08T07:18:38.165Z,19.57
2023-02-08T07:21:09.059Z,18.77
2023-02-08T07:23:44.735Z,18.77
2023-02-08T07:26:17.069Z,21.23
2023-02-08T07:28:47.825Z,21.87
2023-02-08T07:31:18.948Z,20.33
2023-02-08T07:33:50.004Z,21.27
2023-02-08T07:36:20.431Z,18.80
2023-02-08T07:38:50.931Z,19.30
2023-02-08T07:41:21.416Z,18.53
2023-02-08T07:43:53.174Z,17.73
2023-02-08T07:46:23.786Z,18.57
2023-02-08T07:48:54.270Z,17.67
2023-02-08T07:51:26.267Z,20.03
2023-02-08T07:53:56.926Z,19.57
2023-02-08T07:56:27.460Z,17.87
2023-02-08T07:58:58.049Z,18.90
2023-02-08T08:01:28.660Z,18.40
2023-02-08T08:04:00.584Z,18.17
2023-02-08T08:06:31.108Z,17.80
2023-02-08T08:09:03.358Z,19.00
2023-02-08T08:11:34.088Z,17.60
2023-02-08T08:14:05.885Z,18.07
2023-02-08T08:16:36.602Z,15.17
2023-02-08T08:19:08.828Z,18.33
2023-02-08T08:21:39.460Z,18.77
2023-02-08T08:24:10.182Z,16.87
2023-02-08T08:26:40.952Z,17.10
2023-02-08T08:29:11.505Z,17.90
2023-02-08T08:31:44.953Z,18.73
2023-02-08T08:34:16.773Z,19.00
2023-02-08T08:36:47.190Z,19.33
2023-02-08T08:39:17.805Z,18.60
2023-02-08T08:41:48.355Z,19.77
2023-02-08T08:44:19.190Z,19.40
2023-02-08T08:46:52.540Z,19.53
2023-02-08T08:49:23.413Z,19.37
2023-02-08T08:51:54.643Z,19.87
2023-02-08T08:54:27.851Z,21.10
2023-02-08T08:56:58.643Z,19.53
2023-02-08T08:59:30.770Z,19.30
2023-02-08T09:02:01.845Z,21.47
2023-02-08T09:04:32.457Z,21.03
2023-02-08T09:07:03.068Z,21.47
2023-02-08T09:09:36.250Z,21.10
2023-02-08T09:12:09.661Z,21.07
2023-02-08T09:14:41.812Z,23.23
2023-02-08T09:17:13.275Z,21.90
2023-02-08T09:19:44.245Z,19.67
2023-02-08T09:22:16.068Z,20.97
2023-02-08T09:24:46.597Z,21.57
2023-02-08T09:27:18.963Z,20.53
2023-02-08T09:29:51.204Z,22.60
2023-02-08T09:32:23.082Z,20.60
2023-02-08T09:34:53.949Z,21.87
2023-02-08T09:37:24.422Z,21.63
2023-02-08T09:39:55.010Z,22.80
2023-02-08T09:42:37.274Z,22.13
2023-02-08T09:45:22.835Z,21.13
2023-02-08T09:48:08.232Z,20.70
2023-02-08T09:50:44.120Z,22.20
2023-02-08T09:53:35.160Z,21.93
2023-02-08T09:56:11.794Z,23.00
2023-02-08T09:58:52.948Z,21.77
2023-02-08T10:01:27.130Z,22.87
2023-02-08T10:04:05.023Z,21.10
2023-02-08T10:06:38.229Z,22.93
2023-02-08T10:09:14.202Z,23.03
2023-02-08T10:12:09.007Z,18.10
2023-02-08T10:15:07.020Z,21.83
2023-02-08T10:17:46.058Z,21.93
2023-02-08T10:20:44.034Z,23.53
2023-02-08T10:23:22.514Z,23.40
2023-02-08T10:26:20.560Z,20.30
2023-02-08T10:29:16.805Z,24.13
2023-02-08T10:32:08.528Z,23.23
2023-02-08T10:34:58.489Z,21.77
2023-02-08T10:37:39.792Z,21.20
2023-02-08T10:40:29.952Z,21.77
2023-02-08T10:43:06.277Z,21.70
2023-02-08T10:45:44.371Z,22.17
2023-02-08T10:48:37.462Z,23.07
2023-02-08T10:51:20.316Z,19.63
2023-02-08T10:53:50.985Z,20.87
2023-02-08T10:56:34.658Z,21.60
2023-02-08T10:59:14.414Z,22.63
2023-02-08T11:01:48.135Z,20.40
2023-02-08T11:04:19.493Z,21.50
2023-02-08T11:06:51.884Z,21.00
2023-02-08T11:09:29.125Z,20.67
2023-02-08T11:12:02.616Z,21.70
2023-02-08T11:14:47.058Z,20.77
2023-02-08T11:17:32.425Z,21.47
2023-02-08T11:20:03.245Z,19.40
2023-02-08T11:22:34.780Z,21.43
2023-02-08T11:25:08.208Z,21.30
2023-02-08T11:27:41.870Z,21.27
2023-02-08T11:30:18.407Z,21.83
2023-02-08T11:32:52.334Z,20.83
2023-02-08T11:35:25.123Z,22.20
2023-02-08T11:37:58.680Z,22.70
2023-02-08T11:40:41.381Z,21.47
2023-02-08T11:43:30.273Z,21.70
2023-02-08T11:46:03.107Z,20.13
2023-02-08T11:48:48.740Z,21.47
2023-02-08T11:51:36.928Z,22.00
2023-02-08T11:54:07.839Z,23.00
2023-02-08T11:56:38.638Z,22.73
2023-02-08T11:59:25.190Z,21.23
2023-02-08T12:01:57.587Z,21.27
2023-02-08T12:04:29.610Z,22.00
2023-02-08T12:07:18.089Z,21.97
2023-02-08T12:10:26.196Z,21.40
2023-02-08T12:13:21.552Z,21.90
2023-02-08T12:16:14.512Z,20.63
2023-02-08T12:18:56.843Z,21.00
2023-02-08T12:21:31.636Z,22.80
2023-02-08T12:24:14.239Z,21.37
2023-02-08T12:27:04.823Z,24.37
2023-02-08T12:29:47.709Z,22.40
2023-02-08T12:32:22.098Z,21.60
2023-02-08T12:35:14.747Z,23.17
2023-02-08T12:38:08.600Z,23.60
2023-02-08T12:41:02.885Z,22.30
2023-02-08T12:43:39.147Z,23.30
2023-02-08T12:46:22.017Z,23.00
2023-02-08T12:49:14.662Z,21.63
2023-02-08T12:52:03.310Z,22.57
2023-02-08T12:54:45.569Z,22.33
2023-02-08T12:57:19.720Z,21.93
2023-02-08T12:59:53.258Z,22.10
2023-02-08T13:02:40.522Z,22.93
2023-02-08T13:05:20.315Z,21.47
2023-02-08T13:07:53.954Z,22.70
2023-02-08T13:10:31.746Z,22.07
2023-02-08T13:13:13.963Z,21.17
2023-02-08T13:15:53.188Z,22.57
2023-02-08T13:18:35.954Z,23.20
2023-02-08T13:21:15.215Z,22.07
2023-02-08T13:23:52.743Z,23.53
2023-02-08T13:26:31.674Z,23.03
2023-02-08T13:29:04.581Z,22.87
2023-02-08T13:31:43.794Z,23.33
2023-02-08T13:34:23.482Z,21.60
2023-02-08T13:36:58.480Z,22.67
2023-02-08T13:39:40.952Z,22.73
2023-02-08T13:42:39.646Z,21.30
2023-02-08T13:45:13.506Z,22.20
2023-02-08T13:47:47.179Z,22.23
2023-02-08T13:50:41.661Z,18.67
2023-02-08T13:53:14.042Z,21.87
2023-02-08T13:55:56.053Z,20.30
2023-02-08T13:58:38.208Z,21.23
2023-02-08T14:01:23.365Z,21.83
2023-02-08T14:04:11.825Z,21.37
2023-02-08T14:06:52.621Z,21.57
2023-02-08T14:09:26.283Z,21.10
2023-02-08T14:12:05.536Z,21.80
2023-02-08T14:14:38.505Z,22.13
2023-02-08T14:17:20.878Z,20.57
2023-02-08T14:20:00.552Z,19.03
2023-02-08T14:22:40.160Z,19.03
2023-02-08T14:25:33.239Z,20.40
2023-02-08T14:28:04.213Z,19.80
2023-02-08T14:30:42.158Z,20.20
2023-02-08T14:33:16.362Z,19.37
2023-02-08T14:35:59.199Z,21.43
2023-02-08T14:38:50.360Z,20.67
2023-02-08T14:41:43.633Z,20.83
2023-02-08T14:44:45.441Z,22.17
2023-02-08T14:47:27.217Z,21.20
2023-02-08T14:50:20.681Z,21.23
2023-02-08T14:53:06.459Z,21.37
2023-02-08T14:55:58.745Z,20.93
2023-02-08T14:58:35.310Z,21.17
2023-02-08T15:01:10.107Z,20.33
2023-02-08T15:03:43.095Z,21.47
2023-02-08T15:06:22.782Z,21.03
2023-02-08T15:08:55.717Z,20.47
2023-02-08T15:11:29.596Z,21.57
2023-02-08T15:14:04.306Z,19.90
2023-02-08T15:16:44.095Z,21.13
2023-02-08T15:19:42.834Z,20.80
2023-02-08T15:22:22.082Z,20.57
2023-02-08T15:24:55.813Z,24.00
2023-02-08T15:27:34.764Z,18.83
2023-02-08T15:30:05.651Z,20.47
2023-02-08T15:32:36.328Z,21.23
2023-02-08T15:35:07.344Z,19.10
2023-02-08T15:37:38.105Z,21.27
2023-02-08T15:40:10.816Z,20.93
2023-02-08T15:42:44.392Z,19.47
2023-02-08T15:45:26.964Z,19.23
2023-02-08T15:47:59.054Z,21.03
2023-02-08T15:50:33.192Z,21.93
2023-02-08T15:53:07.105Z,20.97
2023-02-08T15:55:42.002Z,21.13
2023-02-08T15:58:38.380Z,18.90
2023-02-08T16:01:12.115Z,18.33
2023-02-08T16:03:44.423Z,20.53
2023-02-08T16:06:17.425Z,18.73
2023-02-08T16:08:50.746Z,18.87
2023-02-08T16:11:31.317Z,18.10
2023-02-08T16:14:05.025Z,18.13
2023-02-08T16:16:48.929Z,17.17
2023-02-08T16:19:25.457Z,17.47
2023-02-08T16:21:58.969Z,18.50
2023-02-08T16:24:29.903Z,18.37
2023-02-08T16:27:11.127Z,18.70
2023-02-08T16:29:42.616Z,18.73
2023-02-08T16:32:35.725Z,18.83
2023-02-08T16:35:14.633Z,18.00
2023-02-08T16:37:45.182Z,18.10
2023-02-08T16:40:46.543Z,19.73
2023-02-08T16:43:35.842Z,19.80
2023-02-08T16:46:18.258Z,17.67
2023-02-08T16:48:57.639Z,19.03
2023-02-08T16:51:31.362Z,18.03
2023-02-08T16:54:11.572Z,18.90
2023-02-08T16:56:43.996Z,18.67
2023-02-08T16:59:15.141Z,18.40
2023-02-08T17:01:47.730Z,19.13
2023-02-08T17:04:18.865Z,17.63
2023-02-08T17:06:49.615Z,17.93
2023-02-08T17:09:20.380Z,18.63
2023-02-08T17:11:51.064Z,17.53
2023-02-08T17:14:21.520Z,18.40
2023-02-08T17:16:52.287Z,19.83
2023-02-08T17:19:22.867Z,18.53
2023-02-08T17:21:53.349Z,17.83
2023-02-08T17:24:24.240Z,18.53
2023-02-08T17:26:55.221Z,18.77
2023-02-08T17:29:25.766Z,17.97
2023-02-08T17:31:56.090Z,18.90
2023-02-08T17:34:27.777Z,18.00
2023-02-08T17:36:58.193Z,17.20
2023-02-08T17:39:28.985Z,17.63
2023-02-08T17:42:01.017Z,17.03
2023-02-08T17:44:31.620Z,17.60
2023-02-08T17:47:02.623Z,17.77
2023-02-08T17:49:33.161Z,17.43
2023-02-08T17:52:03.635Z,18.47
2023-02-08T17:54:36.726Z,17.43
2023-02-08T17:57:07.993Z,17.20
2023-02-08T17:59:41.008Z,16.73
2023-02-08T18:02:11.463Z,16.53
2023-02-08T18:04:41.910Z,17.10
2023-02-08T18:07:12.828Z,16.93
2023-02-08T18:09:43.404Z,17.53
2023-02-08T18:12:14.362Z,16.93
2023-02-08T18:14:45.026Z,16.57
2023-02-08T18:17:15.508Z,17.70
2023-02-08T18:19:46.059Z,16.97
2023-02-08T18:22:16.894Z,16.30
2023-02-08T18:24:49.222Z,17.00
2023-02-08T18:27:19.778Z,16.13
2023-02-08T18:29:50.505Z,16.77
2023-02-08T18:32:31.699Z,16.37
2023-02-08T18:35:04.498Z,15.87
2023-02-08T18:37:36.455Z,15.90
2023-02-08T18:40:09.224Z,16.33
2023-02-08T18:42:39.707Z,15.03
2023-02-08T18:45:12.511Z,15.60
2023-02-08T18:47:42.910Z,14.60
2023-02-08T18:50:14.536Z,29.27
2023-02-08T18:52:44.922Z,19.20
2023-02-08T18:55:15.600Z,19.03
2023-02-08T18:57:52.713Z,15.13
2023-02-08T19:00:23.489Z,15.37
2023-02-08T19:02:55.616Z,14.60
2023-02-08T19:05:26.065Z,15.43
2023-02-08T19:07:56.482Z,16.50
2023-02-08T19:10:26.995Z,15.63
2023-02-08T19:12:59.272Z,16.30
2023-02-08T19:15:29.808Z,17.37
2023-02-08T19:18:00.344Z,17.37
2023-02-08T19:20:31.028Z,17.83
2023-02-08T19:23:01.517Z,16.47
2023-02-08T19:25:32.362Z,17.13
2023-02-08T19:28:02.865Z,16.33
2023-02-08T19:30:33.356Z,16.30
2023-02-08T19:33:04.383Z,17.47
2023-02-08T19:35:37.515Z,16.50
2023-02-08T19:38:07.937Z,17.40
2023-02-08T19:40:41.482Z,15.57
2023-02-08T19:43:12.295Z,17.37
2023-02-08T19:45:45.975Z,16.23
2023-02-08T19:48:16.888Z,15.30
2023-02-08T19:50:59.250Z,16.87
2023-02-08T19:53:30.175Z,16.93
2023-02-08T19:56:04.931Z,18.00
2023-02-08T19:58:37.107Z,16.33
2023-02-08T20:01:10.672Z,16.93
2023-02-08T20:03:41.941Z,17.00
2023-02-08T20:06:17.319Z,15.90
2023-02-08T20:08:49.083Z,16.67
2023-02-08T20:11:22.600Z,16.43
2023-02-08T20:13:54.335Z,14.87
2023-02-08T20:16:27.328Z,16.27
2023-02-08T20:18:59.235Z,15.37
2023-02-08T20:21:30.542Z,17.20
2023-02-08T20:24:03.144Z,16.03
2023-02-08T20:26:33.510Z,15.10
2023-02-08T20:29:06.104Z,14.50
2023-02-08T20:31:39.157Z,15.97
2023-02-08T20:34:12.405Z,15.33
2023-02-08T20:37:05.307Z,14.90
2023-02-08T20:39:21.572Z,14.73
2023-02-08T20:41:52.002Z,15.40
2023-02-08T20:44:22.529Z,15.07
2023-02-08T20:46:54.581Z,15.27
2023-02-08T20:49:26.900Z,16.20
2023-02-08T20:51:57.517Z,14.30
2023-02-08T20:54:29.556Z,14.87
2023-02-08T20:57:00.990Z,13.37
2023-02-08T20:59:31.926Z,13.00
2023-02-08T21:02:02.362Z,13.73
2023-02-08T21:04:35.048Z,12.63
2023-02-08T21:07:05.495Z,13.43
2023-02-08T21:09:36.291Z,13.70
2023-02-08T21:12:06.901Z,12.47
2023-02-08T21:14:37.523Z,13.33
2023-02-08T21:17:08.445Z,12.67
2023-02-08T21:19:39.578Z,12.87
2023-02-08T21:22:11.302Z,13.43
2023-02-08T21:24:41.778Z,12.97
2023-02-08T21:27:14.005Z,11.87
2023-02-08T21:29:44.526Z,13.40
2023-02-08T21:32:17.638Z,14.40
2023-02-08T21:34:50.876Z,11.93
2023-02-08T21:37:21.504Z,12.57
2023-02-08T21:39:52.051Z,12.90
2023-02-08T21:42:22.511Z,13.80
2023-02-08T21:44:53.052Z,13.47
2023-02-08T21:47:23.445Z,13.27
2023-02-08T21:50:12.272Z,12.90
2023-02-08T21:53:00.303Z,12.60
2023-02-08T21:55:31.964Z,12.67
2023-02-08T21:58:02.474Z,12.57
2023-02-08T22:00:32.942Z,13.87
2023-02-08T22:03:03.446Z,12.93
2023-02-08T22:05:52.985Z,11.90
2023-02-08T22:08:23.450Z,13.03
2023-02-08T22:10:58.930Z,12.70
2023-02-08T22:13:29.418Z,12.60
2023-02-08T22:16:02.328Z,12.80
2023-02-08T22:18:33.020Z,12.23
2023-02-08T22:21:05.928Z,13.47
2023-02-08T22:23:36.962Z,13.17
2023-02-08T22:26:10.787Z,13.33
2023-02-08T22:28:42.786Z,13.07
2023-02-08T22:31:15.517Z,12.47
2023-02-08T22:33:48.230Z,12.63
2023-02-08T22:36:18.410Z,13.20
2023-02-08T22:38:48.956Z,12.87
2023-02-08T22:41:20.099Z,12.53
2023-02-08T22:43:51.151Z,12.47
2023-02-08T22:46:23.190Z,13.37
2023-02-08T22:48:53.686Z,13.10
2023-02-08T22:51:24.092Z,12.83
2023-02-08T22:53:56.093Z,12.20
2023-02-08T22:56:26.779Z,13.37
2023-02-08T22:58:57.241Z,12.37
2023-02-08T23:01:28.221Z,12.70
2023-02-08T23:04:00.976Z,13.80
2023-02-08T23:06:33.574Z,13.00
2023-02-08T23:09:07.139Z,12.20
2023-02-08T23:11:39.249Z,13.37
2023-02-08T23:14:10.039Z,13.93
2023-02-08T23:16:40.652Z,12.60
2023-02-08T23:19:18.538Z,12.63
2023-02-08T23:21:49.053Z,13.03
2023-02-08T23:24:20.754Z,12.40
2023-02-08T23:26:51.285Z,12.27
2023-02-08T23:29:23.491Z,11.37
2023-02-08T23:31:55.794Z,12.90
2023-02-08T23:34:26.001Z,12.50
2023-02-08T23:36:58.969Z,12.43
2023-02-08T23:39:29.432Z,13.40
2023-02-08T23:41:59.822Z,12.33
2023-02-08T23:44:30.324Z,12.80
2023-02-08T23:47:02.217Z,12.47
2023-02-08T23:49:32.775Z,12.97
2023-02-08T23:52:03.249Z,12.37
2023-02-08T23:54:34.028Z,12.60
2023-02-08T23:57:07.368Z,12.17
2023-02-08T23:59:39.180Z,12.90
